sensor_id;sensor_type;location;lat;lon;timestamp;pressure;altitude;pressure_sealevel;temperature;humidity
32456;BME280;18912;43.270;27.942;2023-01-27T00:00:20;97706.66;;;10.15;82.36
32456;BME280;18912;43.270;27.942;2023-01-27T00:02:45;97715.69;;;10.40;81.28
32456;BME280;18912;43.270;27.942;2023-01-27T00:05:12;97707.00;;;10.31;82.15
32456;BME280;18912;43.270;27.942;2023-01-27T00:07:39;97721.13;;;10.33;82.02
32456;BME280;18912;43.270;27.942;2023-01-27T00:10:14;97708.22;;;10.42;81.12
32456;BME280;18912;43.270;27.942;2023-01-27T00:12:41;97702.34;;;10.45;81.81
32456;BME280;18912;43.270;27.942;2023-01-27T00:15:25;97693.91;;;10.35;81.89
32456;BME280;18912;43.270;27.942;2023-01-27T00:17:51;97680.06;;;10.18;83.12
32456;BME280;18912;43.270;27.942;2023-01-27T00:20:17;97670.09;;;10.19;82.77
32456;BME280;18912;43.270;27.942;2023-01-27T00:23:01;97678.56;;;10.29;82.67
32456;BME280;18912;43.270;27.942;2023-01-27T00:25:45;97670.00;;;10.32;82.25
32456;BME280;18912;43.270;27.942;2023-01-27T00:28:15;97666.75;;;10.55;82.05
32456;BME280;18912;43.270;27.942;2023-01-27T00:30:48;97665.44;;;10.32;83.10
32456;BME280;18912;43.270;27.942;2023-01-27T00:33:14;97679.88;;;10.51;82.33
32456;BME280;18912;43.270;27.942;2023-01-27T00:36:03;97692.28;;;10.65;81.54
32456;BME280;18912;43.270;27.942;2023-01-27T00:38:31;97686.16;;;10.45;82.90
32456;BME280;18912;43.270;27.942;2023-01-27T00:40:57;97693.56;;;11.37;78.89
32456;BME280;18912;43.270;27.942;2023-01-27T00:43:41;97696.34;;;11.30;77.76
32456;BME280;18912;43.270;27.942;2023-01-27T00:46:07;97696.88;;;11.39;77.08
32456;BME280;18912;43.270;27.942;2023-01-27T00:48:33;97683.91;;;11.47;76.58
32456;BME280;18912;43.270;27.942;2023-01-27T00:50:58;97661.44;;;11.65;76.14
32456;BME280;18912;43.270;27.942;2023-01-27T00:53:24;97677.75;;;11.58;76.19
32456;BME280;18912;43.270;27.942;2023-01-27T00:55:50;97689.84;;;11.38;76.63
32456;BME280;18912;43.270;27.942;2023-01-27T00:58:15;97676.09;;;11.57;76.61
32456;BME280;18912;43.270;27.942;2023-01-27T01:00:41;97667.06;;;11.63;76.65
32456;BME280;18912;43.270;27.942;2023-01-27T01:03:07;97667.56;;;11.78;76.00
32456;BME280;18912;43.270;27.942;2023-01-27T01:05:32;97670.75;;;11.51;76.27
32456;BME280;18912;43.270;27.942;2023-01-27T01:07:58;97671.03;;;11.67;75.46
32456;BME280;18912;43.270;27.942;2023-01-27T01:10:23;97657.84;;;11.53;76.38
32456;BME280;18912;43.270;27.942;2023-01-27T01:12:48;97673.28;;;11.46;77.38
32456;BME280;18912;43.270;27.942;2023-01-27T01:15:14;97675.84;;;11.41;77.81
32456;BME280;18912;43.270;27.942;2023-01-27T01:17:39;97679.91;;;11.50;77.86
32456;BME280;18912;43.270;27.942;2023-01-27T01:20:05;97677.69;;;11.65;76.96
32456;BME280;18912;43.270;27.942;2023-01-27T01:22:31;97658.00;;;11.76;76.05
32456;BME280;18912;43.270;27.942;2023-01-27T01:24:57;97670.44;;;11.41;77.85
32456;BME280;18912;43.270;27.942;2023-01-27T01:27:22;97669.06;;;11.32;78.28
32456;BME280;18912;43.270;27.942;2023-01-27T01:29:48;97663.88;;;11.73;77.25
32456;BME280;18912;43.270;27.942;2023-01-27T01:32:13;97666.47;;;11.61;78.05
32456;BME280;18912;43.270;27.942;2023-01-27T01:34:39;97654.06;;;11.54;78.14
32456;BME280;18912;43.270;27.942;2023-01-27T01:37:04;97648.34;;;11.62;78.00
32456;BME280;18912;43.270;27.942;2023-01-27T01:39:30;97650.78;;;11.88;76.76
32456;BME280;18912;43.270;27.942;2023-01-27T01:41:56;97655.63;;;11.61;77.69
32456;BME280;18912;43.270;27.942;2023-01-27T01:44:26;97656.13;;;11.76;77.82
32456;BME280;18912;43.270;27.942;2023-01-27T01:46:52;97648.53;;;11.67;77.97
32456;BME280;18912;43.270;27.942;2023-01-27T01:49:20;97646.41;;;11.51;78.59
32456;BME280;18912;43.270;27.942;2023-01-27T01:51:50;97644.38;;;11.64;78.42
32456;BME280;18912;43.270;27.942;2023-01-27T01:54:21;97642.28;;;11.84;77.61
32456;BME280;18912;43.270;27.942;2023-01-27T01:59:26;97645.59;;;11.86;77.90
32456;BME280;18912;43.270;27.942;2023-01-27T02:01:55;97637.72;;;11.85;77.50
32456;BME280;18912;43.270;27.942;2023-01-27T02:04:25;97632.22;;;11.73;78.88
32456;BME280;18912;43.270;27.942;2023-01-27T02:07:15;97630.94;;;11.76;79.01
32456;BME280;18912;43.270;27.942;2023-01-27T02:09:43;97624.06;;;11.55;79.39
32456;BME280;18912;43.270;27.942;2023-01-27T02:12:09;97631.75;;;11.76;79.12
32456;BME280;18912;43.270;27.942;2023-01-27T02:14:34;97608.59;;;11.80;79.14
32456;BME280;18912;43.270;27.942;2023-01-27T02:17:01;97603.19;;;11.62;79.38
32456;BME280;18912;43.270;27.942;2023-01-27T02:22:00;97609.88;;;11.96;78.10
32456;BME280;18912;43.270;27.942;2023-01-27T02:24:34;97616.00;;;12.03;77.76
32456;BME280;18912;43.270;27.942;2023-01-27T02:27:02;97607.63;;;11.75;78.70
32456;BME280;18912;43.270;27.942;2023-01-27T02:29:27;97601.75;;;11.60;78.86
32456;BME280;18912;43.270;27.942;2023-01-27T02:31:53;97598.59;;;11.81;78.54
32456;BME280;18912;43.270;27.942;2023-01-27T02:34:20;97583.84;;;11.77;79.14
32456;BME280;18912;43.270;27.942;2023-01-27T02:36:51;97572.84;;;11.54;79.92
32456;BME280;18912;43.270;27.942;2023-01-27T02:39:21;97569.03;;;11.61;80.15
32456;BME280;18912;43.270;27.942;2023-01-27T02:41:52;97564.50;;;11.91;79.06
32456;BME280;18912;43.270;27.942;2023-01-27T02:44:19;97562.78;;;11.61;79.79
32456;BME280;18912;43.270;27.942;2023-01-27T02:46:45;97539.34;;;11.55;80.70
32456;BME280;18912;43.270;27.942;2023-01-27T02:49:10;97531.09;;;11.68;80.26
32456;BME280;18912;43.270;27.942;2023-01-27T02:51:35;97537.69;;;11.72;79.72
32456;BME280;18912;43.270;27.942;2023-01-27T02:54:01;97535.25;;;11.64;80.46
32456;BME280;18912;43.270;27.942;2023-01-27T02:56:26;97528.88;;;11.58;81.04
32456;BME280;18912;43.270;27.942;2023-01-27T02:58:52;97524.75;;;11.74;80.03
32456;BME280;18912;43.270;27.942;2023-01-27T03:01:17;97522.06;;;11.74;80.61
32456;BME280;18912;43.270;27.942;2023-01-27T03:03:43;97513.69;;;11.57;81.41
32456;BME280;18912;43.270;27.942;2023-01-27T03:06:14;97513.94;;;11.85;80.40
32456;BME280;18912;43.270;27.942;2023-01-27T03:08:40;97510.22;;;11.68;81.38
32456;BME280;18912;43.270;27.942;2023-01-27T03:11:06;97502.19;;;11.62;81.89
32456;BME280;18912;43.270;27.942;2023-01-27T03:13:32;97501.81;;;11.58;82.82
32456;BME280;18912;43.270;27.942;2023-01-27T03:15:58;97501.44;;;11.55;82.10
32456;BME280;18912;43.270;27.942;2023-01-27T03:18:43;97511.56;;;11.59;82.16
32456;BME280;18912;43.270;27.942;2023-01-27T03:21:18;97510.09;;;11.45;82.79
32456;BME280;18912;43.270;27.942;2023-01-27T03:23:44;97503.09;;;11.74;81.82
32456;BME280;18912;43.270;27.942;2023-01-27T03:26:10;97480.00;;;11.53;82.86
32456;BME280;18912;43.270;27.942;2023-01-27T03:28:36;97472.91;;;11.41;83.42
32456;BME280;18912;43.270;27.942;2023-01-27T03:31:07;97458.00;;;11.50;82.71
32456;BME280;18912;43.270;27.942;2023-01-27T03:33:34;97456.13;;;11.50;82.83
32456;BME280;18912;43.270;27.942;2023-01-27T03:36:01;97463.53;;;11.73;82.10
32456;BME280;18912;43.270;27.942;2023-01-27T03:38:45;97447.53;;;11.53;82.16
32456;BME280;18912;43.270;27.942;2023-01-27T03:41:29;97449.16;;;11.24;84.12
32456;BME280;18912;43.270;27.942;2023-01-27T03:44:13;97450.22;;;11.53;82.85
32456;BME280;18912;43.270;27.942;2023-01-27T03:46:57;97448.47;;;11.29;83.15
32456;BME280;18912;43.270;27.942;2023-01-27T03:49:22;97444.63;;;11.55;81.78
32456;BME280;18912;43.270;27.942;2023-01-27T03:51:48;97458.34;;;11.71;81.31
32456;BME280;18912;43.270;27.942;2023-01-27T03:54:13;97463.25;;;11.15;84.61
32456;BME280;18912;43.270;27.942;2023-01-27T03:56:39;97466.03;;;11.38;84.42
32456;BME280;18912;43.270;27.942;2023-01-27T03:59:04;97488.00;;;11.48;83.67
32456;BME280;18912;43.270;27.942;2023-01-27T04:01:30;97491.66;;;11.54;83.84
32456;BME280;18912;43.270;27.942;2023-01-27T04:03:55;97496.84;;;11.73;82.68
32456;BME280;18912;43.270;27.942;2023-01-27T04:06:40;97488.34;;;11.52;83.37
32456;BME280;18912;43.270;27.942;2023-01-27T04:09:26;97493.00;;;11.81;82.67
32456;BME280;18912;43.270;27.942;2023-01-27T04:11:53;97480.91;;;11.65;83.17
32456;BME280;18912;43.270;27.942;2023-01-27T04:16:51;97478.66;;;11.92;81.67
32456;BME280;18912;43.270;27.942;2023-01-27T04:19:18;97480.84;;;11.54;83.79
32456;BME280;18912;43.270;27.942;2023-01-27T04:21:44;97464.47;;;11.49;84.22
32456;BME280;18912;43.270;27.942;2023-01-27T04:24:11;97461.50;;;11.68;83.08
32456;BME280;18912;43.270;27.942;2023-01-27T04:26:53;97462.91;;;11.89;82.80
32456;BME280;18912;43.270;27.942;2023-01-27T04:29:19;97470.63;;;11.74;83.48
32456;BME280;18912;43.270;27.942;2023-01-27T04:31:46;97479.94;;;11.89;82.66
32456;BME280;18912;43.270;27.942;2023-01-27T04:34:12;97456.63;;;11.88;83.16
32456;BME280;18912;43.270;27.942;2023-01-27T04:36:38;97447.28;;;11.73;84.10
32456;BME280;18912;43.270;27.942;2023-01-27T04:39:04;97450.06;;;11.96;82.95
32456;BME280;18912;43.270;27.942;2023-01-27T04:41:29;97433.03;;;11.66;84.89
32456;BME280;18912;43.270;27.942;2023-01-27T04:43:54;97435.53;;;11.79;84.21
32456;BME280;18912;43.270;27.942;2023-01-27T04:46:20;97441.03;;;11.72;84.68
32456;BME280;18912;43.270;27.942;2023-01-27T04:48:45;97452.88;;;11.89;83.94
32456;BME280;18912;43.270;27.942;2023-01-27T04:51:11;97441.66;;;11.86;83.40
32456;BME280;18912;43.270;27.942;2023-01-27T04:53:36;97448.78;;;11.98;82.69
32456;BME280;18912;43.270;27.942;2023-01-27T04:56:20;97447.09;;;11.86;84.10
32456;BME280;18912;43.270;27.942;2023-01-27T04:58:46;97437.25;;;12.03;83.04
32456;BME280;18912;43.270;27.942;2023-01-27T05:01:11;97442.38;;;11.93;83.75
32456;BME280;18912;43.270;27.942;2023-01-27T05:03:37;97447.47;;;12.01;82.95
32456;BME280;18912;43.270;27.942;2023-01-27T05:06:02;97436.75;;;11.94;83.47
32456;BME280;18912;43.270;27.942;2023-01-27T05:08:29;97445.13;;;12.04;83.31
32456;BME280;18912;43.270;27.942;2023-01-27T05:10:55;97447.44;;;12.42;82.00
32456;BME280;18912;43.270;27.942;2023-01-27T05:13:20;97445.16;;;12.28;82.22
32456;BME280;18912;43.270;27.942;2023-01-27T05:15:46;97437.06;;;12.51;81.45
32456;BME280;18912;43.270;27.942;2023-01-27T05:18:12;97443.97;;;12.12;83.15
32456;BME280;18912;43.270;27.942;2023-01-27T05:20:37;97436.69;;;12.36;82.77
32456;BME280;18912;43.270;27.942;2023-01-27T05:23:03;97425.38;;;12.39;82.04
32456;BME280;18912;43.270;27.942;2023-01-27T05:25:47;97424.81;;;12.25;83.42
32456;BME280;18912;43.270;27.942;2023-01-27T05:28:12;97419.38;;;12.25;82.77
32456;BME280;18912;43.270;27.942;2023-01-27T05:30:38;97421.16;;;12.43;81.93
32456;BME280;18912;43.270;27.942;2023-01-27T05:33:04;97424.44;;;12.45;81.70
32456;BME280;18912;43.270;27.942;2023-01-27T05:35:32;97426.69;;;12.36;82.63
32456;BME280;18912;43.270;27.942;2023-01-27T05:37:57;97419.38;;;12.48;83.14
32456;BME280;18912;43.270;27.942;2023-01-27T05:40:23;97428.69;;;12.52;82.38
32456;BME280;18912;43.270;27.942;2023-01-27T05:42:50;97431.41;;;12.52;82.45
32456;BME280;18912;43.270;27.942;2023-01-27T05:45:16;97424.28;;;12.97;80.40
32456;BME280;18912;43.270;27.942;2023-01-27T05:47:41;97423.59;;;12.79;81.06
32456;BME280;18912;43.270;27.942;2023-01-27T05:50:07;97438.81;;;12.34;82.65
32456;BME280;18912;43.270;27.942;2023-01-27T05:52:33;97430.81;;;12.62;82.00
32456;BME280;18912;43.270;27.942;2023-01-27T05:54:58;97417.56;;;12.88;80.55
32456;BME280;18912;43.270;27.942;2023-01-27T05:57:24;97417.72;;;12.70;81.57
32456;BME280;18912;43.270;27.942;2023-01-27T05:59:49;97415.13;;;12.64;82.24
32456;BME280;18912;43.270;27.942;2023-01-27T06:02:15;97412.78;;;12.56;82.10
32456;BME280;18912;43.270;27.942;2023-01-27T06:04:40;97412.41;;;12.75;82.46
32456;BME280;18912;43.270;27.942;2023-01-27T06:07:05;97409.47;;;12.65;82.56
32456;BME280;18912;43.270;27.942;2023-01-27T06:09:31;97414.88;;;12.88;80.68
32456;BME280;18912;43.270;27.942;2023-01-27T06:11:56;97419.69;;;12.86;81.82
32456;BME280;18912;43.270;27.942;2023-01-27T06:14:22;97419.63;;;12.58;82.90
32456;BME280;18912;43.270;27.942;2023-01-27T06:16:47;97415.47;;;12.67;82.88
32456;BME280;18912;43.270;27.942;2023-01-27T06:19:13;97413.47;;;12.86;82.01
32456;BME280;18912;43.270;27.942;2023-01-27T06:21:39;97420.88;;;12.79;82.01
32456;BME280;18912;43.270;27.942;2023-01-27T06:24:04;97420.44;;;12.82;81.67
32456;BME280;18912;43.270;27.942;2023-01-27T06:26:30;97420.19;;;12.83;81.48
32456;BME280;18912;43.270;27.942;2023-01-27T06:28:55;97420.88;;;12.90;82.25
32456;BME280;18912;43.270;27.942;2023-01-27T06:31:22;97408.59;;;12.99;82.22
32456;BME280;18912;43.270;27.942;2023-01-27T06:33:48;97412.16;;;12.88;82.68
32456;BME280;18912;43.270;27.942;2023-01-27T06:36:16;97392.72;;;12.91;82.16
32456;BME280;18912;43.270;27.942;2023-01-27T06:38:42;97380.53;;;12.94;82.14
32456;BME280;18912;43.270;27.942;2023-01-27T06:41:08;97391.16;;;12.95;81.87
32456;BME280;18912;43.270;27.942;2023-01-27T06:43:33;97395.44;;;13.03;81.99
32456;BME280;18912;43.270;27.942;2023-01-27T06:45:59;97385.66;;;12.67;82.93
32456;BME280;18912;43.270;27.942;2023-01-27T06:48:25;97392.13;;;12.89;83.48
32456;BME280;18912;43.270;27.942;2023-01-27T06:50:52;97381.63;;;13.04;82.70
32456;BME280;18912;43.270;27.942;2023-01-27T06:53:18;97379.00;;;12.98;82.45
32456;BME280;18912;43.270;27.942;2023-01-27T06:55:43;97386.47;;;12.79;83.29
32456;BME280;18912;43.270;27.942;2023-01-27T06:58:11;97379.56;;;13.11;82.04
32456;BME280;18912;43.270;27.942;2023-01-27T07:00:37;97388.66;;;13.05;82.41
32456;BME280;18912;43.270;27.942;2023-01-27T14:23:49;97046.91;;;9.85;100.00
32456;BME280;18912;43.270;27.942;2023-01-27T14:32:45;97047.53;;;10.28;100.00
32456;BME280;18912;43.270;27.942;2023-01-27T14:38:11;97044.72;;;10.23;100.00
32456;BME280;18912;43.270;27.942;2023-01-27T14:52:38;97059.28;;;10.86;100.00
32456;BME280;18912;43.270;27.942;2023-01-27T14:58:00;97061.97;;;11.32;100.00
32456;BME280;18912;43.270;27.942;2023-01-27T15:00:53;97061.25;;;11.37;100.00
32456;BME280;18912;43.270;27.942;2023-01-27T15:03:44;97068.81;;;11.23;100.00
32456;BME280;18912;43.270;27.942;2023-01-27T15:09:21;97069.03;;;11.34;100.00
32456;BME280;18912;43.270;27.942;2023-01-27T15:12:11;61902.00;;;-141.41;100.00
32456;BME280;18912;43.270;27.942;2023-01-27T15:26:04;97075.03;;;11.36;100.00
32456;BME280;18912;43.270;27.942;2023-01-27T15:28:32;97083.25;;;11.17;100.00
32456;BME280;18912;43.270;27.942;2023-01-27T15:36:40;61902.00;;;-141.41;100.00
32456;BME280;18912;43.270;27.942;2023-01-27T15:39:22;61902.00;;;-141.41;100.00
32456;BME280;18912;43.270;27.942;2023-01-27T15:44:58;61902.00;;;-141.41;100.00
32456;BME280;18912;43.270;27.942;2023-01-27T15:47:26;97093.50;;;11.15;100.00
32456;BME280;18912;43.270;27.942;2023-01-27T15:50:16;97083.75;;;11.14;100.00
32456;BME280;18912;43.270;27.942;2023-01-27T15:52:45;97079.53;;;11.18;100.00
32456;BME280;18912;43.270;27.942;2023-01-27T15:55:24;97092.06;;;11.24;100.00
32456;BME280;18912;43.270;27.942;2023-01-27T16:00:50;97093.13;;;10.89;98.76
32456;BME280;18912;43.270;27.942;2023-01-27T16:03:40;97098.69;;;10.11;96.95
32456;BME280;18912;43.270;27.942;2023-01-27T16:06:14;97105.72;;;10.42;95.03
32456;BME280;18912;43.270;27.942;2023-01-27T16:08:41;97104.66;;;10.43;92.03
32456;BME280;18912;43.270;27.942;2023-01-27T16:16:39;97109.44;;;9.64;94.07
32456;BME280;18912;43.270;27.942;2023-01-27T16:24:38;97110.97;;;10.07;92.71
32456;BME280;18912;43.270;27.942;2023-01-27T16:27:53;97118.38;;;10.30;92.29
32456;BME280;18912;43.270;27.942;2023-01-27T16:30:06;97119.97;;;10.49;91.80
32456;BME280;18912;43.270;27.942;2023-01-27T16:32:37;97123.75;;;10.60;91.65
32456;BME280;18912;43.270;27.942;2023-01-27T16:35:15;97127.06;;;10.73;91.34
32456;BME280;18912;43.270;27.942;2023-01-27T16:37:59;97137.78;;;10.80;91.00
32456;BME280;18912;43.270;27.942;2023-01-27T16:40:26;97129.44;;;10.81;90.72
32456;BME280;18912;43.270;27.942;2023-01-27T16:43:03;97131.91;;;10.71;90.88
32456;BME280;18912;43.270;27.942;2023-01-27T16:45:45;97122.84;;;10.77;89.95
32456;BME280;18912;43.270;27.942;2023-01-27T16:50:41;97136.88;;;10.45;90.49
32456;BME280;18912;43.270;27.942;2023-01-27T16:53:17;97139.59;;;10.56;90.20
32456;BME280;18912;43.270;27.942;2023-01-27T16:56:02;97139.19;;;10.41;89.14
32456;BME280;18912;43.270;27.942;2023-01-27T16:58:29;97139.81;;;10.07;90.23
32456;BME280;18912;43.270;27.942;2023-01-27T17:00:56;97145.09;;;10.02;89.83
32456;BME280;18912;43.270;27.942;2023-01-27T17:03:32;97138.66;;;9.85;90.04
32456;BME280;18912;43.270;27.942;2023-01-27T17:06:02;97140.63;;;9.78;89.01
32456;BME280;18912;43.270;27.942;2023-01-27T17:08:28;97155.47;;;9.08;90.41
32456;BME280;18912;43.270;27.942;2023-01-27T17:11:30;97152.09;;;8.88;92.48
32456;BME280;18912;43.270;27.942;2023-01-27T17:14:01;97152.44;;;8.98;91.86
32456;BME280;18912;43.270;27.942;2023-01-27T17:16:47;97158.16;;;8.52;93.12
32456;BME280;18912;43.270;27.942;2023-01-27T17:19:18;97162.88;;;8.32;93.00
32456;BME280;18912;43.270;27.942;2023-01-27T17:21:46;97159.88;;;8.40;93.37
32456;BME280;18912;43.270;27.942;2023-01-27T17:26:44;97163.31;;;8.16;94.18
32456;BME280;18912;43.270;27.942;2023-01-27T17:29:16;97173.06;;;8.10;93.67
32456;BME280;18912;43.270;27.942;2023-01-27T17:31:43;97174.09;;;8.09;93.36
32456;BME280;18912;43.270;27.942;2023-01-27T17:34:15;97173.63;;;8.19;92.74
32456;BME280;18912;43.270;27.942;2023-01-27T17:37:15;97174.06;;;8.22;92.68
32456;BME280;18912;43.270;27.942;2023-01-27T17:39:41;97176.22;;;8.01;93.60
32456;BME280;18912;43.270;27.942;2023-01-27T17:42:09;97169.94;;;8.13;92.75
32456;BME280;18912;43.270;27.942;2023-01-27T17:44:37;97177.81;;;8.15;92.14
32456;BME280;18912;43.270;27.942;2023-01-27T17:47:04;97171.47;;;7.96;92.92
32456;BME280;18912;43.270;27.942;2023-01-27T17:49:30;97171.72;;;7.88;93.30
32456;BME280;18912;43.270;27.942;2023-01-27T17:51:56;97176.94;;;7.70;93.59
32456;BME280;18912;43.270;27.942;2023-01-27T17:54:37;97176.69;;;7.85;93.32
32456;BME280;18912;43.270;27.942;2023-01-27T17:57:24;97181.66;;;7.88;93.10
32456;BME280;18912;43.270;27.942;2023-01-27T18:02:42;97171.28;;;7.98;93.42
32456;BME280;18912;43.270;27.942;2023-01-27T18:05:21;97172.53;;;7.95;92.01
32456;BME280;18912;43.270;27.942;2023-01-27T18:07:48;97174.44;;;7.75;92.81
32456;BME280;18912;43.270;27.942;2023-01-27T18:12:54;97180.66;;;7.76;92.74
32456;BME280;18912;43.270;27.942;2023-01-27T18:18:02;97179.69;;;7.57;93.53
32456;BME280;18912;43.270;27.942;2023-01-27T18:20:30;97165.53;;;7.88;92.35
32456;BME280;18912;43.270;27.942;2023-01-27T18:22:56;97170.66;;;7.96;92.01
32456;BME280;18912;43.270;27.942;2023-01-27T18:25:22;97188.00;;;8.00;91.78
32456;BME280;18912;43.270;27.942;2023-01-27T18:27:52;97178.59;;;7.78;91.18
32456;BME280;18912;43.270;27.942;2023-01-27T18:30:20;97188.88;;;7.94;90.32
32456;BME280;18912;43.270;27.942;2023-01-27T18:32:52;97195.81;;;7.57;91.28
32456;BME280;18912;43.270;27.942;2023-01-27T18:35:31;97179.22;;;7.73;90.87
32456;BME280;18912;43.270;27.942;2023-01-27T18:38:02;97183.75;;;7.79;90.53
32456;BME280;18912;43.270;27.942;2023-01-27T18:40:37;97189.13;;;7.86;90.12
32456;BME280;18912;43.270;27.942;2023-01-27T18:43:04;97192.03;;;7.84;89.44
32456;BME280;18912;43.270;27.942;2023-01-27T18:45:30;97193.72;;;7.72;89.80
32456;BME280;18912;43.270;27.942;2023-01-27T18:47:56;97189.03;;;7.48;89.65
32456;BME280;18912;43.270;27.942;2023-01-27T18:50:23;97190.06;;;7.34;89.97
32456;BME280;18912;43.270;27.942;2023-01-27T18:52:50;97187.13;;;7.48;89.36
32456;BME280;18912;43.270;27.942;2023-01-27T18:55:23;97193.81;;;7.26;90.27
32456;BME280;18912;43.270;27.942;2023-01-27T18:57:57;97187.59;;;7.13;90.34
32456;BME280;18912;43.270;27.942;2023-01-27T19:00:25;97186.75;;;7.38;89.47
32456;BME280;18912;43.270;27.942;2023-01-27T19:02:54;97192.78;;;7.21;89.78
32456;BME280;18912;43.270;27.942;2023-01-27T19:07:52;97193.63;;;7.08;89.76
32456;BME280;18912;43.270;27.942;2023-01-27T19:10:21;97195.88;;;7.11;90.00
32456;BME280;18912;43.270;27.942;2023-01-27T19:12:56;97200.81;;;7.40;89.01
32456;BME280;18912;43.270;27.942;2023-01-27T19:15:25;97207.66;;;7.23;88.76
32456;BME280;18912;43.270;27.942;2023-01-27T19:17:54;97205.78;;;7.30;88.68
32456;BME280;18912;43.270;27.942;2023-01-27T19:20:25;97210.53;;;7.22;89.00
32456;BME280;18912;43.270;27.942;2023-01-27T19:22:52;97218.19;;;6.79;90.33
32456;BME280;18912;43.270;27.942;2023-01-27T19:25:18;97224.41;;;7.19;89.06
32456;BME280;18912;43.270;27.942;2023-01-27T19:27:47;97221.50;;;7.33;88.78
32456;BME280;18912;43.270;27.942;2023-01-27T19:32:45;97220.47;;;7.28;88.25
32456;BME280;18912;43.270;27.942;2023-01-27T19:35:11;97216.13;;;6.94;89.87
32456;BME280;18912;43.270;27.942;2023-01-27T19:37:37;97233.09;;;6.95;90.15
32456;BME280;18912;43.270;27.942;2023-01-27T19:40:05;97230.81;;;7.24;89.12
32456;BME280;18912;43.270;27.942;2023-01-27T19:42:39;97237.84;;;7.32;88.41
32456;BME280;18912;43.270;27.942;2023-01-27T19:45:05;97224.81;;;7.35;88.38
32456;BME280;18912;43.270;27.942;2023-01-27T19:47:30;97222.53;;;7.45;87.31
32456;BME280;18912;43.270;27.942;2023-01-27T19:49:56;97232.84;;;7.48;86.83
32456;BME280;18912;43.270;27.942;2023-01-27T19:52:21;97230.59;;;7.52;86.70
32456;BME280;18912;43.270;27.942;2023-01-27T19:54:47;97241.09;;;7.67;86.93
32456;BME280;18912;43.270;27.942;2023-01-27T19:57:13;97238.25;;;7.22;86.88
32456;BME280;18912;43.270;27.942;2023-01-27T19:59:41;97222.31;;;7.14;87.66
32456;BME280;18912;43.270;27.942;2023-01-27T20:02:08;97223.38;;;6.74;87.79
32456;BME280;18912;43.270;27.942;2023-01-27T20:04:36;97227.31;;;6.91;87.58
32456;BME280;18912;43.270;27.942;2023-01-27T20:07:01;97229.16;;;7.17;86.89
32456;BME280;18912;43.270;27.942;2023-01-27T20:09:27;97228.13;;;6.92;87.86
32456;BME280;18912;43.270;27.942;2023-01-27T20:11:52;97227.09;;;7.06;87.06
32456;BME280;18912;43.270;27.942;2023-01-27T20:14:18;97231.22;;;6.89;88.10
32456;BME280;18912;43.270;27.942;2023-01-27T20:16:44;97235.56;;;6.96;87.14
32456;BME280;18912;43.270;27.942;2023-01-27T20:19:14;97238.63;;;6.67;88.43
32456;BME280;18912;43.270;27.942;2023-01-27T20:21:41;97237.59;;;6.68;88.35
32456;BME280;18912;43.270;27.942;2023-01-27T20:24:08;97248.09;;;6.63;89.20
32456;BME280;18912;43.270;27.942;2023-01-27T20:26:37;97232.63;;;6.65;88.65
32456;BME280;18912;43.270;27.942;2023-01-27T20:29:05;97241.94;;;6.69;88.38
32456;BME280;18912;43.270;27.942;2023-01-27T20:31:31;97239.25;;;6.63;87.95
32456;BME280;18912;43.270;27.942;2023-01-27T20:33:58;97227.84;;;6.47;89.02
32456;BME280;18912;43.270;27.942;2023-01-27T20:36:23;97239.00;;;6.51;89.31
32456;BME280;18912;43.270;27.942;2023-01-27T20:38:50;97236.34;;;6.64;88.67
32456;BME280;18912;43.270;27.942;2023-01-27T20:41:18;97230.31;;;6.42;89.08
32456;BME280;18912;43.270;27.942;2023-01-27T20:43:44;97231.78;;;6.58;88.35
32456;BME280;18912;43.270;27.942;2023-01-27T20:46:15;97238.00;;;6.58;88.41
32456;BME280;18912;43.270;27.942;2023-01-27T20:48:41;97235.94;;;6.67;88.09
32456;BME280;18912;43.270;27.942;2023-01-27T20:51:08;97233.84;;;6.56;88.51
32456;BME280;18912;43.270;27.942;2023-01-27T20:53:36;97228.91;;;6.66;88.26
32456;BME280;18912;43.270;27.942;2023-01-27T20:56:06;97231.44;;;6.87;86.97
32456;BME280;18912;43.270;27.942;2023-01-27T20:58:31;97225.63;;;7.03;86.25
32456;BME280;18912;43.270;27.942;2023-01-27T21:01:10;97238.63;;;6.80;87.36
32456;BME280;18912;43.270;27.942;2023-01-27T21:03:36;97239.88;;;6.71;87.54
32456;BME280;18912;43.270;27.942;2023-01-27T21:06:03;97250.81;;;6.70;87.55
32456;BME280;18912;43.270;27.942;2023-01-27T21:08:28;97240.69;;;6.58;88.52
32456;BME280;18912;43.270;27.942;2023-01-27T21:10:54;97242.91;;;6.42;89.02
32456;BME280;18912;43.270;27.942;2023-01-27T21:13:19;97244.53;;;6.36;89.48
32456;BME280;18912;43.270;27.942;2023-01-27T21:15:48;97246.69;;;6.60;88.31
32456;BME280;18912;43.270;27.942;2023-01-27T21:18:14;97250.81;;;6.70;87.82
32456;BME280;18912;43.270;27.942;2023-01-27T21:20:45;97248.75;;;6.78;87.45
32456;BME280;18912;43.270;27.942;2023-01-27T21:23:10;97249.75;;;6.57;87.96
32456;BME280;18912;43.270;27.942;2023-01-27T21:25:36;97244.59;;;6.56;88.13
32456;BME280;18912;43.270;27.942;2023-01-27T21:28:01;97248.56;;;6.67;88.29
32456;BME280;18912;43.270;27.942;2023-01-27T21:30:27;97236.56;;;6.69;87.83
32456;BME280;18912;43.270;27.942;2023-01-27T21:32:54;97238.00;;;6.65;87.61
32456;BME280;18912;43.270;27.942;2023-01-27T21:35:19;97243.38;;;6.78;87.58
32456;BME280;18912;43.270;27.942;2023-01-27T21:37:45;97245.47;;;6.76;87.77
32456;BME280;18912;43.270;27.942;2023-01-27T21:40:11;97246.50;;;6.82;86.96
32456;BME280;18912;43.270;27.942;2023-01-27T21:42:36;97252.28;;;6.92;86.52
32456;BME280;18912;43.270;27.942;2023-01-27T21:45:20;97238.25;;;6.83;86.53
32456;BME280;18912;43.270;27.942;2023-01-27T21:47:46;97249.19;;;6.88;86.25
32456;BME280;18912;43.270;27.942;2023-01-27T21:50:12;97238.06;;;6.91;86.52